首页
METAR-TAF:

METAR-TAF

机场 :

重庆, 中华人民共和国

重庆江北国际机场

纬度: 29-31N, 经度: 106-29E, 海拔: 351米

当前天气观测

该预报发布于50分钟前的05:00 UTC
风速4节,风向多变
温度 17°C
湿度 52%
气压 1024 hPa
能见度10公里或以上
散云层高于2000英尺

METAR: ZUCK 250500Z VRB02MPS 9999 SCT020 17/07 Q1024 NOSIG

时间: 13:50 (05:50 UTC)

预报

该预报发布于2小时和47分钟前的03:03 UTC
预报有效从25日的 06点(UTC)到 26日的 06点(UTC)
风速6节,风向南转南东
能見度: 5000
散云层高于4000英尺
轻雾

TAF: ZUCK 250303Z 2506/2606 16003MPS 5000 BR SCT040 TX18/2508Z TN08/2522Z

超过4000个机场的气象观测和天气预报(METAR&TAF报告)。

可查询的气象台以黄色和红色小点在地图上表示。

将鼠标移到小点上方,可查看气象台名称。

然后点击查看天气观测和预报。

如需切换地图:点击带黑十字的绿色按钮放大地图;点击带横线的绿色按钮缩小地图;或者点击绿色箭头查看邻近地区的地图。


METAR-TAF: